首页
METAR-TAF:

METAR-TAF

机场 :

圣约翰斯国际机场

聖約翰斯, 紐芬蘭-拉布拉多, 加拿大

纬度: 47-37N, 经度: 052-44W, 海拔: 134米

当前天气观测

该预报发布于53分钟前的16:00 UTC
风速8节,风向西
温度 13°C
湿度 44%
气压 1020 hPa
能見度: 24.1公里
少量云层高于22000英尺

METAR: CYYT 231600Z 26008KT 15SM FEW220 13/01 A3012 RMK CI2 SLP203

时间: 14:23 (16:53 UTC)

预报

该预报发布于5小时和15分钟前的11:38 UTC
预报有效从23日的 12点(UTC)到 24日的 12点(UTC)
风速14节,风向西转西北
能見度: 10公里
少量云层高于2500英尺
成为
从 23日的 14点(UTC)到 23日的 16点(UTC)
风速8节,风向西北
从 23日的 1800点(UTC)
风速8节,风向西南
能見度: 10公里
天空无云
成为
从 23日的 20点(UTC)到 23日的 22点(UTC)
风速12节,风向西转西南
从 24日的 0400点(UTC)
风速12节,风向西南,有时为22节阵风
能見度: 10公里
少量云层高于2000英尺
多云层高于3000英尺
短暂存在
从 24日的 04点(UTC)到 24日的 10点(UTC)
多云层高于2000英尺
从 24日的 1000点(UTC)
风速12节,风向西北,有时为22节阵风
能見度: 10公里
散云层高于4000英尺

TAF: CYYT 231138Z 2312/2412 30014KT P6SM FEW025 BECMG 2314/2316 32008KT FM231800 22008KT P6SM SKC BECMG 2320/2322 24012KT FM240400 22012G22KT P6SM FEW020 BKN030 TEMPO 2404/2410 BKN020 FM241000 32012G22KT P6SM SCT040 RMK NXT FCST BY 231800Z

超过4000个机场的气象观测和天气预报(METAR&TAF报告)。

可查询的气象台以黄色和红色小点在地图上表示。

将鼠标移到小点上方,可查看气象台名称。

然后点击查看天气观测和预报。

如需切换地图:点击带黑十字的绿色按钮放大地图;点击带横线的绿色按钮缩小地图;或者点击绿色箭头查看邻近地区的地图。


METAR-TAF: